sensor_id;sensor_type;location;lat;lon;timestamp;pressure;altitude;pressure_sealevel;temperature;humidity
39681;BME280;26327;42.550;23.120;2024-01-15T00:02:13;92165.69;;;-2.12;91.03
39681;BME280;26327;42.550;23.120;2024-01-15T00:04:39;92220.88;;;-1.39;90.66
39681;BME280;26327;42.550;23.120;2024-01-15T00:07:08;92221.19;;;-1.33;88.53
39681;BME280;26327;42.550;23.120;2024-01-15T00:09:34;92170.03;;;-1.10;84.97
39681;BME280;26327;42.550;23.120;2024-01-15T00:12:00;92214.75;;;-0.66;83.68
39681;BME280;26327;42.550;23.120;2024-01-15T00:14:25;92163.69;;;-0.85;82.44
39681;BME280;26327;42.550;23.120;2024-01-15T00:16:51;92187.34;;;-0.74;82.90
39681;BME280;26327;42.550;23.120;2024-01-15T00:19:19;92213.97;;;-0.57;82.10
39681;BME280;26327;42.550;23.120;2024-01-15T00:21:45;92144.84;;;-1.04;82.73
39681;BME280;26327;42.550;23.120;2024-01-15T00:24:10;92146.78;;;-0.86;82.28
39681;BME280;26327;42.550;23.120;2024-01-15T00:26:35;92145.88;;;-0.76;81.12
39681;BME280;26327;42.550;23.120;2024-01-15T00:29:01;92204.38;;;-0.44;80.51
39681;BME280;26327;42.550;23.120;2024-01-15T00:31:28;92138.91;;;-0.74;79.52
39681;BME280;26327;42.550;23.120;2024-01-15T00:33:55;92153.94;;;-0.71;79.44
39681;BME280;26327;42.550;23.120;2024-01-15T00:36:20;92213.66;;;-0.33;79.27
39681;BME280;26327;42.550;23.120;2024-01-15T00:38:46;92141.06;;;-0.69;78.87
39681;BME280;26327;42.550;23.120;2024-01-15T00:41:12;92104.63;;;-0.90;79.41
39681;BME280;26327;42.550;23.120;2024-01-15T00:43:38;92168.59;;;-0.53;78.10
39681;BME280;26327;42.550;23.120;2024-01-15T00:46:03;92213.25;;;-0.28;77.89
39681;BME280;26327;42.550;23.120;2024-01-15T00:48:29;92206.81;;;-0.33;79.21
39681;BME280;26327;42.550;23.120;2024-01-15T00:50:54;92161.47;;;-0.59;79.08
39681;BME280;26327;42.550;23.120;2024-01-15T00:53:20;92174.22;;;-0.69;78.99
39681;BME280;26327;42.550;23.120;2024-01-15T00:55:47;92204.28;;;-1.03;83.20
39681;BME280;26327;42.550;23.120;2024-01-15T00:58:13;92208.28;;;-0.40;80.08
39681;BME280;26327;42.550;23.120;2024-01-15T01:00:38;92108.88;;;-1.01;78.72
39681;BME280;26327;42.550;23.120;2024-01-15T01:03:04;92200.19;;;-0.94;83.37
39681;BME280;26327;42.550;23.120;2024-01-15T01:05:29;92152.00;;;-1.49;83.13
39681;BME280;26327;42.550;23.120;2024-01-15T01:07:55;92146.59;;;-1.35;83.72
39681;BME280;26327;42.550;23.120;2024-01-15T01:10:20;92154.59;;;-0.69;79.19
39681;BME280;26327;42.550;23.120;2024-01-15T01:12:45;92210.78;;;-0.49;79.78
39681;BME280;26327;42.550;23.120;2024-01-15T01:15:11;92200.22;;;-0.16;77.11
39681;BME280;26327;42.550;23.120;2024-01-15T01:17:36;92138.69;;;-0.42;76.53
39681;BME280;26327;42.550;23.120;2024-01-15T01:20:02;92148.38;;;-0.36;75.86
39681;BME280;26327;42.550;23.120;2024-01-15T01:22:29;92131.81;;;-0.51;75.99
39681;BME280;26327;42.550;23.120;2024-01-15T01:24:55;92159.91;;;-0.41;76.06
39681;BME280;26327;42.550;23.120;2024-01-15T01:27:21;92168.38;;;-0.41;77.24
39681;BME280;26327;42.550;23.120;2024-01-15T01:29:47;92188.13;;;-0.33;77.47
39681;BME280;26327;42.550;23.120;2024-01-15T01:32:12;92160.41;;;-0.57;78.61
39681;BME280;26327;42.550;23.120;2024-01-15T01:34:41;92133.81;;;-0.64;78.84
39681;BME280;26327;42.550;23.120;2024-01-15T01:37:08;92163.22;;;-0.50;77.94
39681;BME280;26327;42.550;23.120;2024-01-15T01:39:33;92143.59;;;-0.69;76.97
39681;BME280;26327;42.550;23.120;2024-01-15T01:41:58;92187.19;;;-0.32;77.05
39681;BME280;26327;42.550;23.120;2024-01-15T01:44:24;92179.38;;;-0.40;76.75
39681;BME280;26327;42.550;23.120;2024-01-15T01:46:49;92175.78;;;-0.18;76.31
39681;BME280;26327;42.550;23.120;2024-01-15T01:49:15;92173.34;;;-0.39;76.31
39681;BME280;26327;42.550;23.120;2024-01-15T01:51:41;92112.84;;;-0.68;74.87
39681;BME280;26327;42.550;23.120;2024-01-15T01:54:07;92177.13;;;-0.34;75.50
39681;BME280;26327;42.550;23.120;2024-01-15T01:56:34;92170.41;;;-0.25;74.76
39681;BME280;26327;42.550;23.120;2024-01-15T01:59:01;92110.03;;;-0.74;75.22
39681;BME280;26327;42.550;23.120;2024-01-15T02:01:28;92167.03;;;-0.25;74.95
39681;BME280;26327;42.550;23.120;2024-01-15T02:03:54;92109.63;;;-0.60;74.02
39681;BME280;26327;42.550;23.120;2024-01-15T02:06:22;92135.59;;;-0.36;73.20
39681;BME280;26327;42.550;23.120;2024-01-15T02:08:48;92132.25;;;-0.36;72.61
39681;BME280;26327;42.550;23.120;2024-01-15T02:11:13;92135.59;;;-0.16;72.87
39681;BME280;26327;42.550;23.120;2024-01-15T02:13:39;92090.34;;;-0.43;72.61
39681;BME280;26327;42.550;23.120;2024-01-15T02:16:05;92118.00;;;-0.19;73.08
39681;BME280;26327;42.550;23.120;2024-01-15T02:18:40;92117.88;;;-0.18;71.82
39681;BME280;26327;42.550;23.120;2024-01-15T02:21:05;92121.06;;;-0.06;71.66
39681;BME280;26327;42.550;23.120;2024-01-15T02:23:31;92123.34;;;-0.03;71.19
39681;BME280;26327;42.550;23.120;2024-01-15T02:25:56;92103.75;;;-0.03;70.39
39681;BME280;26327;42.550;23.120;2024-01-15T02:28:22;92102.94;;;-0.03;69.92
39681;BME280;26327;42.550;23.120;2024-01-15T02:30:47;92071.91;;;-0.08;69.04
39681;BME280;26327;42.550;23.120;2024-01-15T02:33:13;92078.19;;;-0.03;68.02
39681;BME280;26327;42.550;23.120;2024-01-15T02:35:38;92119.03;;;0.26;68.46
39681;BME280;26327;42.550;23.120;2024-01-15T02:38:07;92084.66;;;0.11;67.88
39681;BME280;26327;42.550;23.120;2024-01-15T02:40:33;92050.66;;;-0.09;68.74
39681;BME280;26327;42.550;23.120;2024-01-15T02:42:59;92044.09;;;-0.21;70.82
39681;BME280;26327;42.550;23.120;2024-01-15T02:45:25;92097.31;;;0.03;71.85
39681;BME280;26327;42.550;23.120;2024-01-15T02:47:52;92057.28;;;-0.35;72.75
39681;BME280;26327;42.550;23.120;2024-01-15T02:50:17;92108.19;;;-0.05;73.18
39681;BME280;26327;42.550;23.120;2024-01-15T02:52:43;92039.41;;;-0.64;74.70
39681;BME280;26327;42.550;23.120;2024-01-15T02:55:08;92093.28;;;-0.19;74.97
39681;BME280;26327;42.550;23.120;2024-01-15T02:57:34;92048.69;;;-0.34;73.56
39681;BME280;26327;42.550;23.120;2024-01-15T03:00:00;92063.72;;;-0.21;73.76
39681;BME280;26327;42.550;23.120;2024-01-15T03:02:25;92115.00;;;0.24;72.25
39681;BME280;26327;42.550;23.120;2024-01-15T03:04:51;92042.75;;;-0.15;72.41
39681;BME280;26327;42.550;23.120;2024-01-15T03:07:16;92112.69;;;0.40;71.02
39681;BME280;26327;42.550;23.120;2024-01-15T03:09:45;92019.22;;;-0.09;71.97
39681;BME280;26327;42.550;23.120;2024-01-15T03:12:10;92079.09;;;0.25;73.22
39681;BME280;26327;42.550;23.120;2024-01-15T03:14:36;92076.97;;;0.21;73.43
39681;BME280;26327;42.550;23.120;2024-01-15T03:17:02;92032.16;;;-0.20;75.31
39681;BME280;26327;42.550;23.120;2024-01-15T03:19:28;91963.63;;;-1.50;80.60
39681;BME280;26327;42.550;23.120;2024-01-15T03:21:53;92008.59;;;-1.80;86.97
39681;BME280;26327;42.550;23.120;2024-01-15T03:24:20;92008.88;;;-2.04;89.37
39681;BME280;26327;42.550;23.120;2024-01-15T03:26:45;92083.63;;;-1.53;89.44
39681;BME280;26327;42.550;23.120;2024-01-15T03:29:10;92076.63;;;-1.31;87.67
39681;BME280;26327;42.550;23.120;2024-01-15T03:31:36;91998.59;;;-1.03;81.99
39681;BME280;26327;42.550;23.120;2024-01-15T03:34:01;92074.88;;;-0.32;80.41
39681;BME280;26327;42.550;23.120;2024-01-15T03:36:27;92064.69;;;-0.32;78.86
39681;BME280;26327;42.550;23.120;2024-01-15T03:38:52;92012.03;;;-0.62;77.95
39681;BME280;26327;42.550;23.120;2024-01-15T03:41:17;92055.94;;;-0.29;78.17
39681;BME280;26327;42.550;23.120;2024-01-15T03:43:43;92006.38;;;-0.56;77.18
39681;BME280;26327;42.550;23.120;2024-01-15T03:46:08;92052.84;;;-0.23;77.22
39681;BME280;26327;42.550;23.120;2024-01-15T03:48:34;92045.84;;;-0.21;78.06
39681;BME280;26327;42.550;23.120;2024-01-15T03:50:59;91999.41;;;-0.44;79.59
39681;BME280;26327;42.550;23.120;2024-01-15T03:53:25;92049.19;;;-0.11;80.43
39681;BME280;26327;42.550;23.120;2024-01-15T03:55:51;91989.34;;;-0.46;80.50
39681;BME280;26327;42.550;23.120;2024-01-15T03:58:17;91971.63;;;-0.47;78.93
39681;BME280;26327;42.550;23.120;2024-01-15T04:00:43;92009.97;;;-0.20;78.29
39681;BME280;26327;42.550;23.120;2024-01-15T04:03:08;91995.22;;;-0.36;77.95
39681;BME280;26327;42.550;23.120;2024-01-15T04:05:34;91978.16;;;-0.35;77.24
39681;BME280;26327;42.550;23.120;2024-01-15T04:07:59;91963.03;;;-0.46;78.22
39681;BME280;26327;42.550;23.120;2024-01-15T04:10:25;91910.84;;;-0.90;77.88
39681;BME280;26327;42.550;23.120;2024-01-15T04:12:51;92004.22;;;-0.32;78.86
39681;BME280;26327;42.550;23.120;2024-01-15T04:15:16;92019.34;;;-1.36;84.36
39681;BME280;26327;42.550;23.120;2024-01-15T04:17:41;92035.44;;;-1.36;86.81
39681;BME280;26327;42.550;23.120;2024-01-15T04:20:07;92020.53;;;-1.40;86.84
39681;BME280;26327;42.550;23.120;2024-01-15T04:22:34;91966.91;;;-1.79;86.96
39681;BME280;26327;42.550;23.120;2024-01-15T04:25:00;91964.13;;;-1.76;86.04
39681;BME280;26327;42.550;23.120;2024-01-15T04:27:26;91983.03;;;-1.69;85.66
39681;BME280;26327;42.550;23.120;2024-01-15T04:29:51;92039.91;;;-1.49;85.95
39681;BME280;26327;42.550;23.120;2024-01-15T04:32:16;91997.88;;;-1.74;86.43
39681;BME280;26327;42.550;23.120;2024-01-15T04:34:42;92002.03;;;-1.82;86.61
39681;BME280;26327;42.550;23.120;2024-01-15T04:37:07;92035.50;;;-0.97;84.46
39681;BME280;26327;42.550;23.120;2024-01-15T04:39:33;92043.06;;;-1.36;85.51
39681;BME280;26327;42.550;23.120;2024-01-15T04:41:58;91984.63;;;-1.08;83.26
39681;BME280;26327;42.550;23.120;2024-01-15T04:44:23;91983.19;;;-0.91;82.14
39681;BME280;26327;42.550;23.120;2024-01-15T04:46:49;92046.06;;;-1.21;84.46
39681;BME280;26327;42.550;23.120;2024-01-15T04:49:14;92024.97;;;-1.33;86.94
39681;BME280;26327;42.550;23.120;2024-01-15T04:51:40;91981.94;;;-1.07;85.00
39681;BME280;26327;42.550;23.120;2024-01-15T04:54:05;91997.13;;;-0.86;83.87
39681;BME280;26327;42.550;23.120;2024-01-15T04:56:30;91996.88;;;-0.44;81.62
39681;BME280;26327;42.550;23.120;2024-01-15T04:58:56;91985.97;;;-0.46;80.81
39681;BME280;26327;42.550;23.120;2024-01-15T05:01:21;91971.34;;;-0.64;81.92
39681;BME280;26327;42.550;23.120;2024-01-15T05:03:46;92030.41;;;-0.20;81.75
39681;BME280;26327;42.550;23.120;2024-01-15T05:06:12;91940.63;;;-0.81;81.25
39681;BME280;26327;42.550;23.120;2024-01-15T05:08:37;92034.72;;;-0.40;81.88
39681;BME280;26327;42.550;23.120;2024-01-15T05:11:03;92000.22;;;-0.44;80.47
39681;BME280;26327;42.550;23.120;2024-01-15T05:13:28;91976.03;;;-0.59;80.18
39681;BME280;26327;42.550;23.120;2024-01-15T05:15:54;92010.28;;;-0.33;79.60
39681;BME280;26327;42.550;23.120;2024-01-15T05:18:19;92000.75;;;-0.40;79.35
39681;BME280;26327;42.550;23.120;2024-01-15T05:20:44;91944.66;;;-0.79;79.21
39681;BME280;26327;42.550;23.120;2024-01-15T05:23:10;91952.56;;;-0.72;79.84
39681;BME280;26327;42.550;23.120;2024-01-15T05:25:35;91986.50;;;-0.43;80.01
39681;BME280;26327;42.550;23.120;2024-01-15T05:28:01;91981.25;;;-0.51;80.27
39681;BME280;26327;42.550;23.120;2024-01-15T05:30:26;91993.78;;;-0.86;81.61
39681;BME280;26327;42.550;23.120;2024-01-15T05:32:52;91983.34;;;-1.52;85.31
39681;BME280;26327;42.550;23.120;2024-01-15T05:35:17;91985.66;;;-1.40;85.56
39681;BME280;26327;42.550;23.120;2024-01-15T05:37:44;91941.53;;;-1.90;86.04
39681;BME280;26327;42.550;23.120;2024-01-15T05:40:14;91940.94;;;-1.73;84.79
39681;BME280;26327;42.550;23.120;2024-01-15T05:42:40;91938.94;;;-1.60;83.85
39681;BME280;26327;42.550;23.120;2024-01-15T05:45:06;91948.06;;;-1.57;83.55
39681;BME280;26327;42.550;23.120;2024-01-15T05:47:32;91956.19;;;-1.04;81.52
39681;BME280;26327;42.550;23.120;2024-01-15T05:49:58;91998.63;;;-0.93;81.24
39681;BME280;26327;42.550;23.120;2024-01-15T05:52:23;91928.09;;;-1.42;82.23
39681;BME280;26327;42.550;23.120;2024-01-15T05:54:49;91986.78;;;-0.46;79.20
39681;BME280;26327;42.550;23.120;2024-01-15T05:57:15;91933.63;;;-0.70;78.28
39681;BME280;26327;42.550;23.120;2024-01-15T05:59:41;91934.44;;;-0.69;78.10
39681;BME280;26327;42.550;23.120;2024-01-15T06:02:06;91982.75;;;-0.39;78.80
39681;BME280;26327;42.550;23.120;2024-01-15T06:04:31;91982.34;;;-1.02;81.21
39681;BME280;26327;42.550;23.120;2024-01-15T06:06:57;91964.78;;;-0.76;80.56
39681;BME280;26327;42.550;23.120;2024-01-15T06:09:22;91935.47;;;-0.52;77.87
39681;BME280;26327;42.550;23.120;2024-01-15T06:11:48;91958.31;;;-0.41;78.41
39681;BME280;26327;42.550;23.120;2024-01-15T06:14:13;91906.31;;;-0.50;76.61
39681;BME280;26327;42.550;23.120;2024-01-15T06:16:39;91928.59;;;-0.33;76.60
39681;BME280;26327;42.550;23.120;2024-01-15T06:19:04;91987.56;;;0.21;75.07
39681;BME280;26327;42.550;23.120;2024-01-15T06:21:29;91871.41;;;-0.40;74.17
39681;BME280;26327;42.550;23.120;2024-01-15T06:27:16;91874.19;;;-0.80;76.91
39681;BME280;26327;42.550;23.120;2024-01-15T06:33:03;91985.31;;;0.08;76.00
39681;BME280;26327;42.550;23.120;2024-01-15T06:35:29;91964.91;;;-0.02;75.46
39681;BME280;26327;42.550;23.120;2024-01-15T06:37:54;91924.25;;;-0.22;76.49
39681;BME280;26327;42.550;23.120;2024-01-15T06:40:19;91949.84;;;-0.42;78.50
39681;BME280;26327;42.550;23.120;2024-01-15T06:42:45;91980.59;;;-0.34;79.18
39681;BME280;26327;42.550;23.120;2024-01-15T06:45:10;91918.34;;;-0.89;80.16
39681;BME280;26327;42.550;23.120;2024-01-15T06:47:36;91980.09;;;0.37;77.40
39681;BME280;26327;42.550;23.120;2024-01-15T06:50:01;91977.59;;;0.55;75.74
39681;BME280;26327;42.550;23.120;2024-01-15T06:52:26;91895.41;;;0.32;73.34
39681;BME280;26327;42.550;23.120;2024-01-15T06:54:52;91915.25;;;-0.17;75.05
39681;BME280;26327;42.550;23.120;2024-01-15T06:57:17;91927.78;;;0.14;74.73
39681;BME280;26327;42.550;23.120;2024-01-15T06:59:45;91997.50;;;0.24;75.57
39681;BME280;26327;42.550;23.120;2024-01-15T07:02:10;91962.78;;;-0.06;76.70
39681;BME280;26327;42.550;23.120;2024-01-15T07:04:36;91946.22;;;0.08;76.19
39681;BME280;26327;42.550;23.120;2024-01-15T07:07:01;91999.66;;;0.19;76.73
39681;BME280;26327;42.550;23.120;2024-01-15T07:09:26;91978.75;;;0.88;72.71
39681;BME280;26327;42.550;23.120;2024-01-15T07:11:52;91946.97;;;0.45;72.52
39681;BME280;26327;42.550;23.120;2024-01-15T07:14:17;91966.09;;;0.69;73.51
39681;BME280;26327;42.550;23.120;2024-01-15T07:16:42;91988.41;;;0.94;73.49
39681;BME280;26327;42.550;23.120;2024-01-15T07:19:08;91920.81;;;0.79;72.22
39681;BME280;26327;42.550;23.120;2024-01-15T07:21:33;91909.69;;;0.88;70.25
39681;BME280;26327;42.550;23.120;2024-01-15T07:27:20;91954.31;;;0.58;73.88
39681;BME280;26327;42.550;23.120;2024-01-15T07:29:46;91958.78;;;0.56;74.58
39681;BME280;26327;42.550;23.120;2024-01-15T07:32:11;91916.72;;;0.68;73.68
39681;BME280;26327;42.550;23.120;2024-01-15T07:34:37;91973.31;;;1.01;73.00
39681;BME280;26327;42.550;23.120;2024-01-15T07:37:03;91953.59;;;0.83;72.96
39681;BME280;26327;42.550;23.120;2024-01-15T07:39:28;91895.97;;;0.71;72.88
39681;BME280;26327;42.550;23.120;2024-01-15T07:41:55;91951.22;;;1.00;74.14
39681;BME280;26327;42.550;23.120;2024-01-15T07:44:21;91966.19;;;1.30;73.51
39681;BME280;26327;42.550;23.120;2024-01-15T07:46:47;91959.03;;;1.51;72.51
39681;BME280;26327;42.550;23.120;2024-01-15T07:49:13;91909.50;;;1.61;70.41
39681;BME280;26327;42.550;23.120;2024-01-15T07:51:39;91909.75;;;1.75;69.79
39681;BME280;26327;42.550;23.120;2024-01-15T07:54:06;91891.09;;;1.39;71.15
39681;BME280;26327;42.550;23.120;2024-01-15T07:56:31;91908.19;;;1.56;71.24
39681;BME280;26327;42.550;23.120;2024-01-15T07:58:57;91884.09;;;1.67;71.70
39681;BME280;26327;42.550;23.120;2024-01-15T08:01:22;91939.09;;;2.15;70.16
39681;BME280;26327;42.550;23.120;2024-01-15T08:03:48;91940.88;;;2.14;69.64
39681;BME280;26327;42.550;23.120;2024-01-15T08:06:13;91943.59;;;2.13;69.59
39681;BME280;26327;42.550;23.120;2024-01-15T08:08:39;91949.56;;;2.64;67.22
39681;BME280;26327;42.550;23.120;2024-01-15T08:11:05;91904.19;;;2.14;68.74
39681;BME280;26327;42.550;23.120;2024-01-15T08:13:31;91948.22;;;2.86;66.86
39681;BME280;26327;42.550;23.120;2024-01-15T08:15:57;91899.66;;;2.00;67.33
39681;BME280;26327;42.550;23.120;2024-01-15T08:18:22;91958.97;;;2.47;66.64
39681;BME280;26327;42.550;23.120;2024-01-15T08:20:48;91951.19;;;2.73;66.93
39681;BME280;26327;42.550;23.120;2024-01-15T08:23:13;91888.03;;;2.80;65.03
39681;BME280;26327;42.550;23.120;2024-01-15T08:25:39;91945.03;;;2.92;64.88
39681;BME280;26327;42.550;23.120;2024-01-15T08:28:04;91936.47;;;2.83;65.68
39681;BME280;26327;42.550;23.120;2024-01-15T08:30:30;91946.63;;;2.93;65.63
39681;BME280;26327;42.550;23.120;2024-01-15T08:32:55;91941.25;;;2.70;66.53
39681;BME280;26327;42.550;23.120;2024-01-15T08:35:21;91908.47;;;3.06;64.18
39681;BME280;26327;42.550;23.120;2024-01-15T08:37:50;91904.63;;;3.02;63.27
39681;BME280;26327;42.550;23.120;2024-01-15T08:40:16;91910.44;;;3.36;62.59
39681;BME280;26327;42.550;23.120;2024-01-15T08:42:42;91955.34;;;3.73;61.16
39681;BME280;26327;42.550;23.120;2024-01-15T08:45:08;91935.94;;;3.62;60.68
39681;BME280;26327;42.550;23.120;2024-01-15T08:47:34;91896.63;;;3.45;60.20
39681;BME280;26327;42.550;23.120;2024-01-15T08:49:59;91919.88;;;3.20;62.74
39681;BME280;26327;42.550;23.120;2024-01-15T08:52:25;91946.50;;;3.75;61.10
39681;BME280;26327;42.550;23.120;2024-01-15T08:54:50;91959.53;;;3.90;62.06
39681;BME280;26327;42.550;23.120;2024-01-15T08:57:16;91934.16;;;3.87;60.57
39681;BME280;26327;42.550;23.120;2024-01-15T08:59:41;91953.25;;;3.68;61.91
39681;BME280;26327;42.550;23.120;2024-01-15T09:02:07;91938.94;;;2.93;63.11
39681;BME280;26327;42.550;23.120;2024-01-15T09:04:33;91924.38;;;3.58;62.33
39681;BME280;26327;42.550;23.120;2024-01-15T09:06:58;91914.25;;;3.16;64.06
39681;BME280;26327;42.550;23.120;2024-01-15T09:09:24;91896.44;;;3.06;64.93
39681;BME280;26327;42.550;23.120;2024-01-15T09:11:51;91929.53;;;3.34;62.61
39681;BME280;26327;42.550;23.120;2024-01-15T09:14:16;91900.13;;;3.04;64.92
39681;BME280;26327;42.550;23.120;2024-01-15T09:16:42;91857.94;;;3.06;63.75
39681;BME280;26327;42.550;23.120;2024-01-15T09:19:07;91844.78;;;2.85;63.66
39681;BME280;26327;42.550;23.120;2024-01-15T09:21:33;91889.38;;;3.08;64.34
39681;BME280;26327;42.550;23.120;2024-01-15T09:23:58;91853.72;;;2.57;67.15
39681;BME280;26327;42.550;23.120;2024-01-15T09:26:24;91846.22;;;2.79;66.46
39681;BME280;26327;42.550;23.120;2024-01-15T09:28:49;91883.84;;;2.63;68.52
39681;BME280;26327;42.550;23.120;2024-01-15T09:31:14;91893.75;;;2.41;70.20
39681;BME280;26327;42.550;23.120;2024-01-15T09:33:42;91884.69;;;2.21;71.52
39681;BME280;26327;42.550;23.120;2024-01-15T09:36:08;91809.75;;;1.85;70.94
39681;BME280;26327;42.550;23.120;2024-01-15T09:38:33;91881.44;;;2.53;71.74
39681;BME280;26327;42.550;23.120;2024-01-15T09:41:00;91825.81;;;2.37;70.82
39681;BME280;26327;42.550;23.120;2024-01-15T09:43:25;91810.28;;;2.79;70.21
39681;BME280;26327;42.550;23.120;2024-01-15T09:45:51;91842.84;;;3.28;69.58
39681;BME280;26327;42.550;23.120;2024-01-15T09:48:18;91851.22;;;3.22;69.08
39681;BME280;26327;42.550;23.120;2024-01-15T09:50:44;91776.75;;;3.46;67.19
39681;BME280;26327;42.550;23.120;2024-01-15T09:53:09;91756.88;;;3.24;67.37
39681;BME280;26327;42.550;23.120;2024-01-15T09:55:36;91821.00;;;3.64;67.59
39681;BME280;26327;42.550;23.120;2024-01-15T09:58:05;91811.66;;;3.79;68.46
39681;BME280;26327;42.550;23.120;2024-01-15T10:00:33;91798.91;;;3.94;67.82
39681;BME280;26327;42.550;23.120;2024-01-15T10:02:58;91765.28;;;4.04;67.75
39681;BME280;26327;42.550;23.120;2024-01-15T10:05:26;91807.50;;;4.71;67.34
39681;BME280;26327;42.550;23.120;2024-01-15T10:07:53;91801.03;;;4.53;66.76
39681;BME280;26327;42.550;23.120;2024-01-15T10:10:19;91786.44;;;4.14;67.96
39681;BME280;26327;42.550;23.120;2024-01-15T10:12:47;91805.84;;;4.25;68.39
39681;BME280;26327;42.550;23.120;2024-01-15T10:15:12;91791.72;;;4.52;66.98
39681;BME280;26327;42.550;23.120;2024-01-15T10:17:38;91781.38;;;4.60;67.70
39681;BME280;26327;42.550;23.120;2024-01-15T10:20:13;91709.66;;;4.11;68.12
39681;BME280;26327;42.550;23.120;2024-01-15T10:22:42;91779.38;;;4.16;69.42
39681;BME280;26327;42.550;23.120;2024-01-15T10:25:12;91774.50;;;4.52;69.07
39681;BME280;26327;42.550;23.120;2024-01-15T10:27:38;91764.09;;;4.68;70.45
39681;BME280;26327;42.550;23.120;2024-01-15T10:30:04;91746.50;;;4.57;72.03
39681;BME280;26327;42.550;23.120;2024-01-15T10:32:31;91764.06;;;4.77;72.36
39681;BME280;26327;42.550;23.120;2024-01-15T10:34:57;91751.81;;;5.01;71.67
39681;BME280;26327;42.550;23.120;2024-01-15T10:37:24;91753.94;;;5.13;71.37
39681;BME280;26327;42.550;23.120;2024-01-15T10:39:49;91640.78;;;4.67;70.22
39681;BME280;26327;42.550;23.120;2024-01-15T10:42:15;91742.03;;;5.34;68.27
39681;BME280;26327;42.550;23.120;2024-01-15T10:44:43;91743.78;;;5.34;67.81
39681;BME280;26327;42.550;23.120;2024-01-15T10:47:09;91758.19;;;5.43;66.87
39681;BME280;26327;42.550;23.120;2024-01-15T10:49:34;91766.91;;;5.57;65.76
39681;BME280;26327;42.550;23.120;2024-01-15T10:52:01;91746.13;;;5.06;68.42
39681;BME280;26327;42.550;23.120;2024-01-15T10:54:27;91756.91;;;4.87;68.85
39681;BME280;26327;42.550;23.120;2024-01-15T10:56:53;91738.72;;;4.65;70.26
39681;BME280;26327;42.550;23.120;2024-01-15T10:59:21;91710.31;;;4.59;70.50
39681;BME280;26327;42.550;23.120;2024-01-15T11:01:49;91731.63;;;4.67;70.76
39681;BME280;26327;42.550;23.120;2024-01-15T11:04:15;91729.47;;;4.79;70.89
39681;BME280;26327;42.550;23.120;2024-01-15T11:06:51;91722.59;;;4.94;71.44
39681;BME280;26327;42.550;23.120;2024-01-15T11:09:17;91720.56;;;5.19;70.55
39681;BME280;26327;42.550;23.120;2024-01-15T11:15:05;91667.38;;;4.59;69.91
39681;BME280;26327;42.550;23.120;2024-01-15T11:23:49;91659.75;;;4.51;71.52
39681;BME280;26327;42.550;23.120;2024-01-15T11:28:58;91682.63;;;4.84;72.42
39681;BME280;26327;42.550;23.120;2024-01-15T11:34:11;91645.69;;;4.39;72.77
39681;BME280;26327;42.550;23.120;2024-01-15T11:41:57;91637.19;;;4.38;72.98
39681;BME280;26327;42.550;23.120;2024-01-15T11:44:23;91649.94;;;4.32;74.03
39681;BME280;26327;42.550;23.120;2024-01-15T11:46:59;91635.31;;;4.32;74.09
39681;BME280;26327;42.550;23.120;2024-01-15T11:49:58;91694.63;;;4.68;73.08
39681;BME280;26327;42.550;23.120;2024-01-15T11:52:24;91680.25;;;4.82;72.69
39681;BME280;26327;42.550;23.120;2024-01-15T11:55:19;91697.38;;;4.67;73.36
39681;BME280;26327;42.550;23.120;2024-01-15T12:01:07;91631.50;;;4.28;73.84
39681;BME280;26327;42.550;23.120;2024-01-15T12:03:33;91648.50;;;4.67;72.57
39681;BME280;26327;42.550;23.120;2024-01-15T12:05:59;91670.22;;;4.50;74.24
39681;BME280;26327;42.550;23.120;2024-01-15T12:08:25;91640.97;;;4.28;74.56
39681;BME280;26327;42.550;23.120;2024-01-15T12:10:52;91583.41;;;3.91;74.57
39681;BME280;26327;42.550;23.120;2024-01-15T12:13:18;91665.25;;;4.86;72.60
39681;BME280;26327;42.550;23.120;2024-01-15T12:15:44;91667.03;;;5.00;71.43
39681;BME280;26327;42.550;23.120;2024-01-15T12:18:12;91630.09;;;4.93;70.37
39681;BME280;26327;42.550;23.120;2024-01-15T12:20:39;91678.44;;;5.35;70.64
39681;BME280;26327;42.550;23.120;2024-01-15T12:23:05;91666.97;;;5.37;69.65
39681;BME280;26327;42.550;23.120;2024-01-15T12:25:35;91631.53;;;5.25;70.58
39681;BME280;26327;42.550;23.120;2024-01-15T12:28:01;91657.91;;;5.42;70.09
39681;BME280;26327;42.550;23.120;2024-01-15T12:30:27;91645.53;;;5.52;69.29
39681;BME280;26327;42.550;23.120;2024-01-15T12:32:55;91672.88;;;5.67;69.04
39681;BME280;26327;42.550;23.120;2024-01-15T12:35:20;91671.03;;;5.76;68.41
39681;BME280;26327;42.550;23.120;2024-01-15T12:37:47;91640.22;;;5.53;68.34
39681;BME280;26327;42.550;23.120;2024-01-15T12:40:13;91655.94;;;5.73;68.38
39681;BME280;26327;42.550;23.120;2024-01-15T12:42:40;91657.44;;;5.53;69.26
39681;BME280;26327;42.550;23.120;2024-01-15T12:45:06;91650.88;;;5.50;70.03
39681;BME280;26327;42.550;23.120;2024-01-15T12:47:32;91633.59;;;5.29;71.84
39681;BME280;26327;42.550;23.120;2024-01-15T12:49:58;91634.25;;;5.53;69.75
39681;BME280;26327;42.550;23.120;2024-01-15T12:52:29;91638.00;;;5.50;69.29
39681;BME280;26327;42.550;23.120;2024-01-15T12:54:56;91584.19;;;5.41;68.66
39681;BME280;26327;42.550;23.120;2024-01-15T12:57:21;91646.59;;;5.72;69.21
39681;BME280;26327;42.550;23.120;2024-01-15T12:59:48;91625.25;;;5.63;69.50
39681;BME280;26327;42.550;23.120;2024-01-15T13:02:16;91638.16;;;5.78;69.61
39681;BME280;26327;42.550;23.120;2024-01-15T13:04:42;91598.44;;;5.58;69.54
39681;BME280;26327;42.550;23.120;2024-01-15T13:07:07;91608.56;;;5.23;71.95
39681;BME280;26327;42.550;23.120;2024-01-15T13:09:33;91581.97;;;5.37;70.60
39681;BME280;26327;42.550;23.120;2024-01-15T13:12:00;91617.34;;;5.65;70.06
39681;BME280;26327;42.550;23.120;2024-01-15T13:14:26;91586.66;;;5.49;70.96
39681;BME280;26327;42.550;23.120;2024-01-15T13:20:14;91622.50;;;5.80;69.54
39681;BME280;26327;42.550;23.120;2024-01-15T13:22:39;91576.16;;;5.50;70.56
39681;BME280;26327;42.550;23.120;2024-01-15T13:25:06;91618.00;;;5.52;71.44
39681;BME280;26327;42.550;23.120;2024-01-15T13:27:32;91627.84;;;5.78;71.39